Time;durP1;ratioP1;P1;durP2;ratioP2;P2;SDS_P1;SDS_P2;PMS_P1;PMS_P2;Temp;Humidity;BMP_temperature;BMP_pressure;BME280_temperature;BME280_humidity;BME280_pressure;Samples;Min_cycle;Max_cycle;Signal;HPM_P1;HPM_P2
2023/07/09 06:54:53;;;;;;;6.32;4.00;;;23.30;40.70;;;;;;6136146;23;20196;-89
2023/07/09 07:00:44;;;;;;;8.20;4.53;;;23.50;37.70;;;;;;6149587;23;20152;-94
2023/07/09 07:05:54;;;;;;;4.57;4.07;;;23.70;35.20;;;;;;6100140;23;20413;-91
2023/07/09 07:08:23;;;;;;;6.60;4.03;;;24.00;35.40;;;;;;6109838;23;20710;-91
2023/07/09 07:18:38;;;;;;;6.25;4.35;;;26.80;24.60;;;;;;6091095;23;20220;-91
2023/07/09 07:23:48;;;;;;;6.57;4.18;;;28.40;16.50;;;;;;6117291;23;20160;-93
2023/07/09 07:34:31;;;;;;;5.90;3.92;;;26.90;19.70;;;;;;6124966;23;20191;-89
2023/07/09 07:36:58;;;;;;;6.07;4.75;;;26.60;20.60;;;;;;6100297;23;20184;-89
2023/07/09 07:39:25;;;;;;;6.00;4.18;;;26.40;21.00;;;;;;6138769;23;20184;-90
2023/07/09 07:54:29;;;;;;;10.63;5.05;;;26.20;20.00;;;;;;6134493;23;20204;-90
2023/07/09 07:56:56;;;;;;;7.70;4.88;;;26.30;19.50;;;;;;6128737;23;20176;-89
2023/07/09 07:59:23;;;;;;;5.55;4.65;;;26.40;18.80;;;;;;6129271;23;20262;-88
2023/07/09 08:01:50;;;;;;;6.22;4.70;;;26.60;19.20;;;;;;6132865;23;20263;-89
2023/07/09 08:04:17;;;;;;;6.18;4.40;;;26.90;19.80;;;;;;6133141;23;20210;-90
2023/07/09 08:06:46;;;;;;;6.70;4.75;;;26.90;18.70;;;;;;6142474;23;20198;-90
2023/07/09 08:09:13;;;;;;;8.30;4.68;;;27.00;19.20;;;;;;6143756;23;20191;-92
2023/07/09 08:11:40;;;;;;;6.70;4.70;;;27.10;19.70;;;;;;6110270;23;20611;-93
2023/07/09 08:14:07;;;;;;;6.30;4.68;;;27.20;18.90;;;;;;6073692;23;20286;-90
2023/07/09 08:16:34;;;;;;;7.65;5.30;;;27.50;18.20;;;;;;6123287;23;20520;-88
2023/07/09 08:19:01;;;;;;;8.15;4.93;;;27.60;17.20;;;;;;6097064;23;20198;-89
2023/07/09 08:21:28;;;;;;;6.70;4.50;;;27.70;17.30;;;;;;6103885;23;20181;-89
2023/07/09 08:23:56;;;;;;;5.68;5.07;;;28.10;16.50;;;;;;6130108;23;20634;-87
2023/07/09 08:26:24;;;;;;;8.68;5.50;;;29.40;14.40;;;;;;6118891;23;20182;-88
2023/07/09 08:28:51;;;;;;;7.05;5.10;;;31.00;12.00;;;;;;6095316;23;20234;-87
2023/07/09 08:31:19;;;;;;;6.20;5.38;;;32.10;9.60;;;;;;6118129;23;20175;-87
2023/07/09 08:33:45;;;;;;;7.82;7.07;;;33.20;6.90;;;;;;6124789;23;20642;-88
2023/07/09 08:36:12;;;;;;;6.72;6.05;;;34.20;5.90;;;;;;6121850;23;20199;-88
2023/07/09 08:38:39;;;;;;;8.63;6.88;;;35.10;4.30;;;;;;6094074;23;20178;-89
2023/07/09 08:47:13;;;;;;;8.63;6.50;;;36.70;1.30;;;;;;6122005;23;20168;-91
2023/07/09 08:50:02;;;;;;;7.97;5.90;;;37.00;1.00;;;;;;6100908;23;20511;-88
2023/07/09 08:52:34;;;;;;;7.78;5.70;;;37.60;1.00;;;;;;6123782;23;20254;-89
2023/07/09 09:00:46;;;;;;;10.65;5.47;;;37.60;1.00;;;;;;6123972;23;20171;-89
2023/07/09 09:06:21;;;;;;;10.25;6.22;;;37.20;1.00;;;;;;6124462;23;20715;-90
2023/07/09 09:09:01;;;;;;;7.15;5.90;;;38.50;1.00;;;;;;6124019;23;20234;-89
2023/07/09 09:11:54;;;;;;;6.70;5.90;;;38.40;1.00;;;;;;6123030;23;20186;-91
2023/07/09 09:14:32;;;;;;;6.35;5.70;;;38.00;1.00;;;;;;6098881;23;20194;-90
2023/07/09 09:17:01;;;;;;;8.70;5.90;;;37.80;1.00;;;;;;6106965;23;20493;-91
2023/07/09 09:19:43;;;;;;;6.65;5.88;;;38.10;1.00;;;;;;6124157;23;20202;-89
2023/07/09 09:25:27;;;;;;;6.47;5.88;;;38.00;1.00;;;;;;6122074;23;20259;-90
2023/07/09 09:28:14;;;;;;;9.15;6.47;;;37.90;1.00;;;;;;6124360;23;20176;-89
2023/07/09 09:30:49;;;;;;;6.97;5.90;;;37.40;1.00;;;;;;6117754;23;20474;-90
2023/07/09 09:36:12;;;;;;;6.68;6.00;;;37.40;1.00;;;;;;6096027;23;20273;-90
2023/07/09 09:41:45;;;;;;;7.25;6.47;;;37.70;1.00;;;;;;6123603;23;20208;-90
2023/07/09 09:44:20;;;;;;;7.55;5.75;;;38.00;1.00;;;;;;6097966;23;20868;-92
2023/07/09 09:46:59;;;;;;;7.03;6.00;;;37.60;1.00;;;;;;6097144;23;20258;-90
2023/07/09 09:49:27;;;;;;;6.85;6.22;;;37.10;1.00;;;;;;6121308;23;20180;-91
2023/07/09 09:52:15;;;;;;;6.35;5.75;;;36.70;1.00;;;;;;6124253;23;20259;-89
2023/07/09 09:57:34;;;;;;;6.88;6.18;;;36.60;1.00;;;;;;6119844;23;20239;-91
2023/07/09 10:00:02;;;;;;;7.75;6.18;;;36.60;1.00;;;;;;6098569;23;20201;-90
2023/07/09 10:05:27;;;;;;;6.70;6.10;;;37.70;1.00;;;;;;6121522;23;20176;-90
2023/07/09 10:08:00;;;;;;;11.85;10.85;;;37.00;1.00;;;;;;6124364;23;20170;-91
2023/07/09 10:13:22;;;;;;;6.63;6.07;;;37.20;1.00;;;;;;6090240;23;20542;-90
2023/07/09 10:16:12;;;;;;;9.02;6.32;;;39.10;1.00;;;;;;6114128;23;20689;-91
2023/07/09 10:24:43;;;;;;;6.53;6.03;;;38.00;1.00;;;;;;6074708;23;20179;-90
2023/07/09 10:39:11;;;;;;;8.02;5.90;;;37.50;1.00;;;;;;6122811;23;20207;-92
2023/07/09 10:41:41;;;;;;;8.43;5.90;;;37.50;1.70;;;;;;6098074;23;20182;-90
2023/07/09 10:44:26;;;;;;;8.23;6.10;;;37.00;1.00;;;;;;6098376;23;20280;-91
2023/07/09 10:46:59;;;;;;;6.78;5.65;;;36.50;2.90;;;;;;6096750;23;20179;-90
2023/07/09 10:49:35;;;;;;;6.43;5.68;;;36.70;1.00;;;;;;6125076;23;20488;-90
2023/07/09 10:54:56;;;;;;;7.60;5.60;;;36.60;1.00;;;;;;6106743;23;20246;-90
2023/07/09 10:57:31;;;;;;;16.10;6.22;;;36.20;1.00;;;;;;6123879;23;20604;-91
2023/07/09 10:59:59;;;;;;;10.75;7.88;;;34.90;1.00;;;;;;6123803;23;20571;-89
2023/07/09 11:02:30;;;;;;;8.15;5.20;;;33.80;2.90;;;;;;6098275;23;20176;-89
2023/07/09 11:05:00;;;;;;;8.13;5.10;;;33.00;2.90;;;;;;6097020;23;20194;-89
2023/07/09 11:07:32;;;;;;;7.20;4.78;;;32.10;4.10;;;;;;6121821;23;20183;-91
2023/07/09 11:10:02;;;;;;;6.90;4.60;;;31.60;5.10;;;;;;6098372;23;20625;-91
2023/07/09 11:15:26;;;;;;;6.40;4.40;;;31.20;6.00;;;;;;6110222;23;20195;-93
2023/07/09 11:18:08;;;;;;;5.10;4.50;;;30.80;7.10;;;;;;6117164;23;20204;-93
2023/07/09 11:26:24;;;;;;;6.95;5.55;;;30.40;8.00;;;;;;6102515;23;20175;-93
2023/07/09 11:28:54;;;;;;;6.95;4.70;;;30.70;8.10;;;;;;6082729;23;20231;-93
2023/07/09 11:31:24;;;;;;;5.18;4.68;;;30.80;7.40;;;;;;6125614;23;20617;-93
2023/07/09 11:34:02;;;;;;;7.28;4.97;;;30.50;7.50;;;;;;6135730;23;20520;-94
2023/07/09 11:36:30;;;;;;;6.45;4.80;;;30.30;8.80;;;;;;6135217;23;20291;-93
2023/07/09 12:07:03;;;;;;;9.02;4.60;;;31.00;6.70;;;;;;6041783;23;20173;-92
2023/07/09 12:18:31;;;;;;;7.45;4.55;;;31.70;6.40;;;;;;6105967;23;20187;-91
2023/07/09 12:20:58;;;;;;;9.13;4.40;;;32.00;5.30;;;;;;6130746;23;20189;-91
2023/07/09 12:23:30;;;;;;;7.13;5.15;;;31.70;4.20;;;;;;6125445;23;20651;-93
2023/07/09 12:28:42;;;;;;;5.13;4.20;;;32.40;4.30;;;;;;6119477;23;20625;-91
2023/07/09 12:34:01;;;;;;;5.90;4.75;;;33.00;2.90;;;;;;6096157;23;20281;-91
2023/07/09 12:36:29;;;;;;;8.38;4.90;;;33.20;2.60;;;;;;6115322;23;20191;-92
2023/07/09 12:41:44;;;;;;;7.03;4.90;;;33.10;2.90;;;;;;6139193;23;20178;-92
2023/07/09 12:44:19;;;;;;;7.45;4.53;;;33.10;2.30;;;;;;6117763;23;20183;-92
2023/07/09 12:46:49;;;;;;;7.80;4.55;;;33.10;2.70;;;;;;6118381;23;20174;-92
2023/07/09 12:49:24;;;;;;;7.60;4.68;;;33.00;2.90;;;;;;6138690;23;20247;-93
2023/07/09 12:51:51;;;;;;;9.88;4.70;;;32.80;2.90;;;;;;6177865;23;20178;-92
2023/07/09 12:59:38;;;;;;;6.18;4.38;;;32.30;3.30;;;;;;6134750;23;20206;-91
2023/07/09 13:02:16;;;;;;;6.10;4.50;;;32.70;3.80;;;;;;6136537;23;20174;-89
2023/07/09 13:04:50;;;;;;;10.27;7.75;;;33.00;3.30;;;;;;6137616;23;20573;-92
2023/07/09 13:07:28;;;;;;;6.43;4.43;;;33.20;2.40;;;;;;6117370;23;20171;-92
2023/07/09 13:09:57;;;;;;;4.72;4.28;;;33.20;2.40;;;;;;6142424;23;20219;-93
2023/07/09 13:12:31;;;;;;;7.15;4.68;;;33.10;3.40;;;;;;6121059;23;20163;-91
2023/07/09 13:14:59;;;;;;;5.63;4.28;;;33.10;3.80;;;;;;6140418;23;20163;-91
2023/07/09 13:20:10;;;;;;;5.70;4.40;;;33.00;3.10;;;;;;6136418;23;20171;-91
2023/07/09 13:22:37;;;;;;;5.95;4.47;;;32.80;3.40;;;;;;6114267;23;20168;-91
2023/07/09 13:25:08;;;;;;;8.52;4.40;;;33.20;1.70;;;;;;6139509;23;20181;-91
2023/07/09 13:27:35;;;;;;;7.80;4.43;;;33.20;2.70;;;;;;6114618;23;20631;-91
2023/07/09 13:30:01;;;;;;;6.70;4.40;;;33.20;1.20;;;;;;6114202;23;20246;-91
2023/07/09 13:32:31;;;;;;;5.57;4.47;;;33.00;2.40;;;;;;6139636;23;20258;-90
2023/07/09 13:34:57;;;;;;;7.68;4.95;;;33.00;2.80;;;;;;6109217;23;20210;-91
2023/07/09 13:37:24;;;;;;;16.42;5.03;;;32.80;2.20;;;;;;6134571;23;20206;-90
2023/07/09 13:39:51;;;;;;;8.35;7.43;;;32.20;4.30;;;;;;6133785;23;20187;-91
2023/07/09 13:42:19;;;;;;;7.82;4.35;;;31.70;4.40;;;;;;6136431;23;20254;-91
2023/07/09 13:44:47;;;;;;;6.32;4.50;;;31.30;5.50;;;;;;6132660;23;20236;-90
2023/07/09 13:47:16;;;;;;;6.95;4.45;;;31.00;5.70;;;;;;6144721;23;20186;-92
2023/07/09 13:52:26;;;;;;;9.30;5.00;;;31.30;4.80;;;;;;6137510;23;20377;-91
2023/07/09 13:54:53;;;;;;;4.97;4.43;;;31.60;5.80;;;;;;6107304;23;20179;-91
2023/07/09 13:57:22;;;;;;;7.07;4.82;;;31.50;5.60;;;;;;6137923;23;20201;-92
2023/07/09 13:59:49;;;;;;;7.28;5.22;;;31.70;5.00;;;;;;6112239;23;20199;-92
2023/07/09 14:04:54;;;;;;;7.35;4.60;;;31.90;3.60;;;;;;6111798;23;20203;-92
2023/07/09 14:09:49;;;;;;;10.52;4.60;;;31.60;5.30;;;;;;6149323;23;20194;-93
2023/07/09 14:14:53;;;;;;;6.85;4.65;;;31.40;4.20;;;;;;6133248;23;20209;-92
2023/07/09 14:27:44;;;;;;;7.45;4.20;;;31.20;5.80;;;;;;6132365;23;20206;-94
2023/07/09 14:52:47;;;;;;;7.30;4.80;;;32.10;3.60;;;;;;6148342;23;20173;31
2023/07/09 15:13:43;;;;;;;6.68;4.30;;;31.60;4.20;;;;;;5659427;23;20222;-92
2023/07/09 15:16:10;;;;;;;7.07;4.72;;;31.60;4.80;;;;;;5043206;28;20190;-93
2023/07/09 15:18:39;;;;;;;5.18;4.40;;;31.60;5.00;;;;;;5030771;28;20230;-92
2023/07/09 15:21:06;;;;;;;5.75;4.43;;;31.60;4.40;;;;;;5027908;28;20211;-91
2023/07/09 15:23:44;;;;;;;6.03;4.60;;;31.70;4.40;;;;;;5021444;28;20195;-92
2023/07/09 15:26:14;;;;;;;8.32;4.18;;;31.70;3.90;;;;;;5018959;28;20202;-92
2023/07/09 15:28:42;;;;;;;8.70;4.50;;;31.70;4.00;;;;;;5018558;28;20225;-92
2023/07/09 15:31:12;;;;;;;7.53;4.50;;;31.70;4.20;;;;;;5017420;28;20322;-92
2023/07/09 15:33:39;;;;;;;5.95;4.63;;;31.70;3.80;;;;;;5025207;28;20183;-90
2023/07/09 15:36:11;;;;;;;7.30;4.40;;;31.70;4.30;;;;;;5022728;28;20210;-92
2023/07/09 15:38:40;;;;;;;5.68;4.35;;;31.60;4.20;;;;;;5020862;28;20270;-92
2023/07/09 15:41:11;;;;;;;5.97;4.72;;;31.60;4.70;;;;;;5018816;28;20213;-92
2023/07/09 15:43:38;;;;;;;6.88;5.80;;;31.60;4.50;;;;;;5008568;28;20231;-91
2023/07/09 15:46:07;;;;;;;7.90;4.50;;;31.60;4.50;;;;;;5006659;28;20198;-92
2023/07/09 15:48:35;;;;;;;7.40;4.50;;;31.60;4.10;;;;;;5009629;28;20216;-91
2023/07/09 15:51:04;;;;;;;8.55;4.70;;;31.70;4.40;;;;;;5010177;28;20199;-92
2023/07/09 15:53:32;;;;;;;5.05;4.53;;;31.60;4.30;;;;;;5009229;28;20203;-91
2023/07/09 15:56:01;;;;;;;6.13;4.60;;;31.50;4.90;;;;;;5007314;28;20199;-93
2023/07/09 15:58:33;;;;;;;7.88;4.55;;;31.40;4.80;;;;;;5003697;28;20221;-93
2023/07/09 16:01:00;;;;;;;6.50;4.82;;;31.20;5.00;;;;;;4995558;28;20204;-91
2023/07/09 16:03:28;;;;;;;6.13;4.45;;;31.10;5.40;;;;;;5009697;28;20199;-93
2023/07/09 16:11:10;;;;;;;6.65;4.50;;;31.10;5.00;;;;;;4980618;28;20255;-93
2023/07/09 16:13:37;;;;;;;4.95;4.38;;;31.00;4.90;;;;;;4989553;28;20235;-93
2023/07/09 16:16:04;;;;;;;7.70;4.55;;;30.90;5.40;;;;;;4990575;28;20196;-92
2023/07/09 16:21:24;;;;;;;5.93;4.20;;;30.90;6.20;;;;;;4990098;28;20205;-92
2023/07/09 16:23:52;;;;;;;4.75;4.20;;;30.80;5.80;;;;;;5004579;28;20247;-92
2023/07/09 16:26:19;;;;;;;7.88;4.18;;;30.80;5.00;;;;;;4989518;28;20192;-92
2023/07/09 16:28:46;;;;;;;7.68;4.45;;;31.00;4.40;;;;;;5344127;23;20215;-92
2023/07/09 16:31:13;;;;;;;6.93;4.65;;;30.90;5.30;;;;;;5014735;28;20187;-92
2023/07/09 16:33:41;;;;;;;4.97;4.47;;;30.90;4.70;;;;;;5015030;28;20187;-92
2023/07/09 16:36:14;;;;;;;7.78;4.45;;;30.80;4.80;;;;;;5015669;28;20206;-92
2023/07/09 16:38:40;;;;;;;6.78;4.18;;;30.80;5.40;;;;;;5010121;28;20210;-91
2023/07/09 16:41:09;;;;;;;7.70;4.55;;;30.70;5.40;;;;;;4998179;28;20653;-91
2023/07/09 16:43:35;;;;;;;8.70;4.38;;;30.50;5.90;;;;;;4977013;28;20207;-91
2023/07/09 16:46:02;;;;;;;6.40;4.57;;;30.30;7.20;;;;;;4990483;28;20208;-89
2023/07/09 16:48:29;;;;;;;10.00;5.30;;;30.20;7.20;;;;;;4992161;28;20199;-89
2023/07/09 16:50:58;;;;;;;9.65;4.25;;;30.20;6.20;;;;;;4995455;28;20200;-90
2023/07/09 16:53:25;;;;;;;4.30;3.90;;;30.20;6.20;;;;;;4996102;28;20254;-90
2023/07/09 16:55:52;;;;;;;6.53;4.18;;;30.10;6.90;;;;;;4991380;28;20242;-90
2023/07/09 16:58:28;;;;;;;5.32;4.03;;;30.10;6.10;;;;;;4996117;28;20206;-91
2023/07/09 17:00:56;;;;;;;5.30;3.97;;;30.00;7.00;;;;;;4993977;28;20203;-89
2023/07/09 17:03:22;;;;;;;6.55;4.18;;;30.10;6.10;;;;;;4997325;28;20275;-89
2023/07/09 17:05:49;;;;;;;7.55;4.30;;;30.00;6.00;;;;;;4994737;28;20206;-90
2023/07/09 17:08:18;;;;;;;6.53;4.18;;;30.10;6.60;;;;;;4991766;28;20684;-90
2023/07/09 17:10:46;;;;;;;5.65;4.10;;;30.00;6.20;;;;;;4993770;28;20227;-90
2023/07/09 17:13:18;;;;;;;6.55;3.92;;;29.90;6.30;;;;;;5005917;28;20200;-90
2023/07/09 17:15:45;;;;;;;7.75;4.88;;;30.00;5.60;;;;;;5007675;28;20191;-91
2023/07/09 17:18:21;;;;;;;9.85;4.75;;;30.00;6.10;;;;;;4997620;28;20232;-91
2023/07/09 17:20:49;;;;;;;6.15;4.07;;;30.00;6.40;;;;;;4988895;28;20196;-92
2023/07/09 17:23:20;;;;;;;6.85;4.32;;;30.00;5.70;;;;;;4992358;28;20208;-92
2023/07/09 17:25:48;;;;;;;5.18;4.20;;;29.90;7.00;;;;;;4991326;28;20204;-94
2023/07/09 17:28:17;;;;;;;6.70;4.10;;;29.90;6.40;;;;;;4994817;28;20203;-93
2023/07/09 17:30:45;;;;;;;5.40;3.78;;;29.80;6.20;;;;;;4990075;28;20227;-90
2023/07/09 17:33:13;;;;;;;7.53;4.47;;;29.60;6.80;;;;;;4982428;28;20196;-93
2023/07/09 17:35:42;;;;;;;9.00;4.53;;;29.50;6.90;;;;;;5014827;28;20212;-92
2023/07/09 17:38:16;;;;;;;5.50;4.07;;;29.40;6.70;;;;;;4977393;28;20215;-92
2023/07/09 17:40:45;;;;;;;6.70;4.40;;;29.40;6.70;;;;;;4982690;28;20231;-91
2023/07/09 17:43:14;;;;;;;5.93;3.80;;;29.30;6.70;;;;;;4978853;28;20227;-91
2023/07/09 17:45:42;;;;;;;11.38;4.25;;;29.30;6.70;;;;;;4986299;28;20272;-93
2023/07/09 17:48:14;;;;;;;8.40;4.25;;;29.10;7.80;;;;;;4990664;28;20208;-92
2023/07/09 17:50:42;;;;;;;5.05;4.10;;;29.10;7.30;;;;;;4982342;28;20216;-91
2023/07/09 17:53:16;;;;;;;6.30;4.40;;;29.00;7.30;;;;;;4979597;28;20198;-89
2023/07/09 17:55:45;;;;;;;5.60;3.70;;;28.90;7.20;;;;;;4980226;28;20204;-91
2023/07/09 17:58:13;;;;;;;5.68;4.35;;;28.80;6.70;;;;;;4985785;28;20195;-90
2023/07/09 18:00:40;;;;;;;5.40;4.20;;;28.80;7.50;;;;;;4983236;28;20228;-90
2023/07/09 18:03:09;;;;;;;5.07;4.50;;;28.70;6.40;;;;;;4981477;28;20204;-91
2023/07/09 18:05:36;;;;;;;7.00;4.32;;;28.50;6.70;;;;;;4982344;28;20212;-89
2023/07/09 18:08:04;;;;;;;6.53;4.05;;;28.40;7.20;;;;;;4983747;28;20211;-90
2023/07/09 18:10:34;;;;;;;7.82;4.53;;;28.30;7.70;;;;;;4984792;28;20226;-90
2023/07/09 18:13:05;;;;;;;8.73;4.35;;;28.10;7.90;;;;;;4981601;28;20525;-91
2023/07/09 18:15:34;;;;;;;5.80;4.43;;;28.00;8.50;;;;;;4974574;28;20203;-89
2023/07/09 18:18:01;;;;;;;5.53;4.60;;;27.90;8.60;;;;;;4972274;28;20332;-88
2023/07/09 18:20:28;;;;;;;7.13;4.38;;;27.80;9.20;;;;;;4983944;28;20208;-90
2023/07/09 18:22:55;;;;;;;7.25;4.70;;;27.60;10.80;;;;;;4986911;28;20198;-90
2023/07/09 18:28:08;;;;;;;7.80;4.85;;;27.30;11.70;;;;;;4982887;28;20203;-89
2023/07/09 18:30:37;;;;;;;6.82;4.50;;;27.20;11.00;;;;;;4976695;28;20247;-90
2023/07/09 18:33:06;;;;;;;5.63;4.53;;;27.00;11.20;;;;;;4975003;28;20196;-89
2023/07/09 18:35:34;;;;;;;8.02;5.05;;;26.90;11.70;;;;;;4972171;28;20204;-87
2023/07/09 18:40:46;;;;;;;6.50;4.95;;;26.70;12.30;;;;;;4965947;28;20593;-90
2023/07/09 18:43:16;;;;;;;6.40;4.53;;;26.60;12.40;;;;;;4998988;28;20197;-87
2023/07/09 18:45:54;;;;;;;10.05;5.10;;;26.60;12.80;;;;;;4977813;28;20238;-90
2023/07/09 18:48:23;;;;;;;6.90;5.10;;;26.50;13.30;;;;;;4972244;28;20215;-88
2023/07/09 18:50:52;;;;;;;6.35;5.40;;;26.40;13.40;;;;;;4975975;28;20307;-89
2023/07/09 18:53:22;;;;;;;7.32;5.10;;;26.30;13.90;;;;;;4969311;28;20204;-88
2023/07/09 18:55:49;;;;;;;8.70;4.82;;;26.20;14.10;;;;;;4972569;28;20211;-88
2023/07/09 18:58:21;;;;;;;9.00;5.00;;;26.10;13.90;;;;;;4957646;28;20213;-88
2023/07/09 19:00:49;;;;;;;6.07;4.53;;;26.00;13.90;;;;;;4975500;28;20672;-88
2023/07/09 19:03:18;;;;;;;6.53;5.00;;;25.90;14.60;;;;;;4971178;28;20654;-89
2023/07/09 19:05:46;;;;;;;6.80;5.00;;;25.80;14.60;;;;;;4974980;28;20204;-89
2023/07/09 19:08:21;;;;;;;12.75;9.77;;;25.70;14.50;;;;;;4973900;28;20201;-87
2023/07/09 19:13:31;;;;;;;14.70;12.90;;;25.50;14.40;;;;;;4992982;28;20263;-89
2023/07/09 19:16:00;;;;;;;21.65;17.92;;;25.40;14.30;;;;;;4975919;28;20204;-89
2023/07/09 19:18:31;;;;;;;22.65;17.02;;;25.30;15.40;;;;;;4993863;28;20297;-90
2023/07/09 19:20:59;;;;;;;15.55;12.98;;;25.20;16.40;;;;;;5008313;28;20204;-88
2023/07/09 19:23:27;;;;;;;13.20;10.05;;;25.10;16.60;;;;;;4981541;28;20616;-88
2023/07/09 19:25:54;;;;;;;9.93;7.93;;;25.00;16.80;;;;;;4982177;28;20200;-88
2023/07/09 19:28:22;;;;;;;12.57;9.32;;;25.00;17.20;;;;;;4977986;28;20205;-88
2023/07/09 19:30:53;;;;;;;12.18;10.27;;;24.90;17.40;;;;;;4978647;28;20236;-89
2023/07/09 19:33:23;;;;;;;12.18;9.68;;;24.80;17.70;;;;;;4980465;28;20207;-89
2023/07/09 19:35:50;;;;;;;10.55;8.30;;;24.80;18.30;;;;;;4979009;28;20255;-87
2023/07/09 19:38:17;;;;;;;13.45;9.52;;;24.70;18.30;;;;;;4977784;28;20201;-90
2023/07/09 19:40:44;;;;;;;7.63;6.82;;;24.70;19.50;;;;;;4980301;28;20200;-88
2023/07/09 19:43:13;;;;;;;10.38;9.02;;;24.60;18.50;;;;;;4977699;28;20721;-88
2023/07/09 19:45:44;;;;;;;12.00;8.10;;;24.50;18.80;;;;;;5009596;28;20211;-88
2023/07/09 19:48:15;;;;;;;12.40;9.18;;;24.50;19.10;;;;;;4978459;28;20616;-89
2023/07/09 19:50:46;;;;;;;7.75;5.40;;;24.40;19.30;;;;;;4978202;28;20590;-88
2023/07/09 19:53:18;;;;;;;9.55;6.43;;;24.30;19.90;;;;;;4980226;28;20201;-87
2023/07/09 19:55:45;;;;;;;10.15;5.88;;;24.20;19.50;;;;;;4985933;28;20200;-89
2023/07/09 19:58:12;;;;;;;9.05;5.50;;;24.10;19.60;;;;;;4977449;28;20209;-89
2023/07/09 20:00:40;;;;;;;7.32;5.97;;;24.00;19.80;;;;;;4982540;28;20231;-88
2023/07/09 20:03:12;;;;;;;14.30;6.30;;;23.90;20.00;;;;;;4975846;28;20243;-87
2023/07/09 20:05:41;;;;;;;8.27;5.00;;;23.80;20.50;;;;;;4978681;28;20216;-87
2023/07/09 20:08:15;;;;;;;7.40;5.03;;;23.70;20.10;;;;;;4979379;28;20197;-89
2023/07/09 20:10:43;;;;;;;9.10;5.32;;;23.60;20.60;;;;;;4978301;28;20624;-88
2023/07/09 20:13:13;;;;;;;7.22;5.15;;;23.50;21.10;;;;;;4973661;28;20209;-86
2023/07/09 20:15:41;;;;;;;8.10;6.20;;;23.50;21.60;;;;;;4987012;28;20208;-86
2023/07/09 20:18:15;;;;;;;11.07;7.50;;;23.40;21.80;;;;;;4987292;28;20564;-89
2023/07/09 20:20:45;;;;;;;7.93;6.10;;;23.40;22.50;;;;;;5019847;28;20208;-88
2023/07/09 20:23:13;;;;;;;11.73;6.80;;;23.30;22.50;;;;;;4977367;28;20200;-88
2023/07/09 20:25:40;;;;;;;9.73;6.60;;;23.30;23.00;;;;;;4975412;28;20197;-88
2023/07/09 20:28:17;;;;;;;9.18;5.40;;;23.30;23.10;;;;;;4979989;28;20693;-89
2023/07/09 20:30:44;;;;;;;9.00;6.03;;;23.30;23.20;;;;;;4981387;28;20204;-88
2023/07/09 20:33:11;;;;;;;8.90;6.00;;;23.30;23.70;;;;;;4974641;28;20201;-88
2023/07/09 20:35:38;;;;;;;7.47;5.53;;;23.20;24.10;;;;;;4974480;28;20208;-86
2023/07/09 20:38:15;;;;;;;7.82;6.00;;;23.20;24.90;;;;;;4980571;28;20196;-88
2023/07/09 20:40:44;;;;;;;10.63;6.28;;;23.10;25.50;;;;;;4977063;28;20197;-89
2023/07/09 20:43:31;;;;;;;10.20;6.13;;;23.10;26.20;;;;;;4980459;28;20205;-87
2023/07/09 20:45:58;;;;;;;9.38;5.95;;;23.10;26.90;;;;;;4976518;28;20207;-85
2023/07/09 20:48:25;;;;;;;8.63;5.95;;;23.00;26.40;;;;;;4973332;28;20208;-87
2023/07/09 20:50:56;;;;;;;10.73;6.72;;;22.90;26.20;;;;;;4974376;28;20231;-87
2023/07/09 20:53:31;;;;;;;9.50;5.82;;;22.80;26.10;;;;;;4975374;28;20213;-87
2023/07/09 20:58:52;;;;;;;8.85;5.68;;;22.70;26.40;;;;;;4971325;28;20210;-86
2023/07/09 21:01:20;;;;;;;7.05;5.60;;;22.70;27.30;;;;;;4955242;28;20211;-86
2023/07/09 21:06:29;;;;;;;12.02;5.35;;;22.60;28.90;;;;;;4972502;28;20208;-88
2023/07/09 21:14:53;;;;;;;6.75;4.95;;;22.50;29.70;;;;;;4973260;28;20263;-89
2023/07/09 21:20:18;;;;;;;8.48;5.40;;;22.50;30.30;;;;;;4978372;28;20262;-89
2023/07/09 21:22:48;;;;;;;10.32;5.50;;;22.40;30.50;;;;;;4974180;28;20296;-88
2023/07/09 21:25:23;;;;;;;6.70;5.47;;;22.40;31.00;;;;;;4972550;28;20207;-89
2023/07/09 21:27:51;;;;;;;11.40;5.38;;;22.30;32.00;;;;;;4971126;28;20214;-86
2023/07/09 21:30:22;;;;;;;13.02;5.80;;;22.20;32.30;;;;;;4968690;28;20224;-91
2023/07/09 21:32:51;;;;;;;9.20;5.50;;;22.20;33.00;;;;;;4977182;28;20215;-88
2023/07/09 21:35:22;;;;;;;8.20;5.20;;;22.20;33.90;;;;;;4956679;28;20689;-89
2023/07/09 21:37:50;;;;;;;7.57;5.50;;;22.20;33.90;;;;;;4992313;28;20216;-91
2023/07/09 21:40:25;;;;;;;8.05;5.68;;;22.10;33.80;;;;;;4973062;28;20642;-89
2023/07/09 21:42:52;;;;;;;13.57;5.43;;;22.10;33.80;;;;;;4973262;28;20250;-89
2023/07/09 21:48:07;;;;;;;8.23;5.28;;;22.10;33.80;;;;;;4969526;28;20201;-88
2023/07/09 21:50:34;;;;;;;10.05;5.63;;;22.00;36.80;;;;;;4979456;28;20220;-87
2023/07/09 21:53:01;;;;;;;8.95;5.30;;;22.00;37.10;;;;;;5004197;28;20216;-87
2023/07/09 21:55:30;;;;;;;8.57;5.70;;;22.00;37.50;;;;;;4971507;28;20299;-88
2023/07/09 21:57:57;;;;;;;7.47;5.10;;;21.90;37.70;;;;;;4970562;28;20220;-87
2023/07/09 22:00:27;;;;;;;7.90;5.40;;;21.80;38.00;;;;;;4970221;28;20200;-88
2023/07/09 22:02:55;;;;;;;10.15;5.65;;;21.80;38.70;;;;;;4972707;28;20568;-88
2023/07/09 22:05:24;;;;;;;11.02;5.43;;;21.70;39.50;;;;;;4974826;28;20210;-90
2023/07/09 22:07:52;;;;;;;9.82;5.80;;;21.70;40.30;;;;;;4972594;28;20561;-87
2023/07/09 22:10:21;;;;;;;9.13;5.70;;;21.70;40.70;;;;;;4973718;28;20205;-86
2023/07/09 22:12:53;;;;;;;9.18;5.78;;;21.60;41.20;;;;;;4970006;28;20197;-89
2023/07/09 22:15:22;;;;;;;11.55;5.50;;;21.60;41.60;;;;;;4973196;28;20226;-89
2023/07/09 22:17:50;;;;;;;8.35;5.55;;;21.50;41.90;;;;;;4971532;28;20223;-88
2023/07/09 22:20:19;;;;;;;9.10;6.18;;;21.50;43.00;;;;;;4972562;28;20201;-89
2023/07/09 22:22:46;;;;;;;9.15;5.07;;;21.50;43.80;;;;;;4972642;28;20204;-87
2023/07/09 22:25:15;;;;;;;7.80;5.20;;;21.40;44.30;;;;;;4969174;28;20205;-88
2023/07/09 22:27:42;;;;;;;9.65;5.40;;;21.30;45.00;;;;;;4970718;28;20207;-89
2023/07/09 22:30:13;;;;;;;8.30;6.07;;;21.30;44.70;;;;;;4969854;28;20200;-89
2023/07/09 22:32:40;;;;;;;11.13;5.78;;;21.20;45.60;;;;;;4966544;28;20646;-90
2023/07/09 22:35:12;;;;;;;8.25;5.47;;;21.10;45.70;;;;;;4971918;28;20212;-90
2023/07/09 22:37:40;;;;;;;8.23;5.85;;;21.10;47.00;;;;;;4970004;28;20196;-88
2023/07/09 22:40:16;;;;;;;8.18;5.72;;;21.10;46.80;;;;;;4970718;28;20207;-89
2023/07/09 22:42:43;;;;;;;9.50;5.35;;;21.10;47.10;;;;;;4971270;28;20208;-89
2023/07/09 22:45:12;;;;;;;8.70;5.57;;;21.00;47.00;;;;;;4972007;28;20228;-88
2023/07/09 22:47:39;;;;;;;9.25;5.07;;;20.90;47.60;;;;;;4970170;28;20259;-89
2023/07/09 22:50:14;;;;;;;10.55;5.55;;;20.90;48.50;;;;;;4970509;28;20263;-88
2023/07/09 22:52:44;;;;;;;8.20;5.78;;;20.80;49.10;;;;;;4976378;28;20200;-89
2023/07/09 22:55:31;;;;;;;8.65;5.78;;;20.80;49.50;;;;;;4977777;28;20754;-91
2023/07/09 22:58:00;;;;;;;7.60;5.50;;;20.70;49.80;;;;;;4974205;28;20196;-86
2023/07/09 23:00:30;;;;;;;8.20;5.35;;;20.70;49.80;;;;;;4975487;28;20213;-87
2023/07/09 23:02:59;;;;;;;8.27;5.13;;;20.70;49.80;;;;;;4980642;28;20264;-88
2023/07/09 23:05:26;;;;;;;10.48;5.60;;;20.60;51.10;;;;;;4981440;28;20209;-89
2023/07/09 23:07:53;;;;;;;9.63;5.32;;;20.60;51.30;;;;;;4982209;28;20205;-87
2023/07/09 23:10:21;;;;;;;11.25;5.57;;;20.60;52.90;;;;;;4982641;28;20200;-87
2023/07/09 23:12:48;;;;;;;9.45;5.65;;;20.60;51.70;;;;;;4962775;28;21031;-88
2023/07/09 23:15:23;;;;;;;7.75;4.85;;;20.60;51.90;;;;;;4970685;28;20252;-86
2023/07/09 23:17:53;;;;;;;7.28;5.38;;;20.50;52.20;;;;;;4974779;28;20233;-88
2023/07/09 23:20:20;;;;;;;9.25;5.18;;;20.60;51.90;;;;;;4972252;28;20201;-89
2023/07/09 23:22:48;;;;;;;8.85;5.40;;;20.50;51.70;;;;;;4977594;28;20192;-88
2023/07/09 23:25:15;;;;;;;10.40;5.85;;;20.60;51.60;;;;;;4965356;28;20209;-86
2023/07/09 23:27:43;;;;;;;9.50;5.72;;;20.60;52.90;;;;;;4974176;28;20204;-88
2023/07/09 23:30:18;;;;;;;8.82;5.25;;;20.60;52.80;;;;;;4973984;28;20208;-88
2023/07/09 23:32:45;;;;;;;10.10;4.80;;;20.60;53.30;;;;;;4975796;28;20246;-88
2023/07/09 23:35:18;;;;;;;9.30;5.18;;;20.50;52.60;;;;;;4972491;28;20541;-89
2023/07/09 23:37:46;;;;;;;7.70;5.20;;;20.40;53.00;;;;;;4968456;28;20204;-87
2023/07/09 23:40:14;;;;;;;8.95;5.22;;;20.40;54.20;;;;;;5004984;28;20200;-87
2023/07/09 23:42:42;;;;;;;7.85;5.00;;;20.40;54.20;;;;;;4977255;28;20683;-86
2023/07/09 23:45:14;;;;;;;7.75;5.00;;;20.40;54.70;;;;;;4977588;28;20205;-87
2023/07/09 23:47:42;;;;;;;8.85;5.20;;;20.40;54.80;;;;;;4975601;28;20204;-87
2023/07/09 23:50:16;;;;;;;5.75;5.15;;;20.30;55.30;;;;;;4976050;28;20283;-87
2023/07/09 23:52:44;;;;;;;6.45;5.45;;;20.20;54.60;;;;;;4974897;28;20277;-89
2023/07/09 23:55:12;;;;;;;14.43;4.88;;;20.20;54.10;;;;;;4970418;28;20201;-90
2023/07/09 23:57:40;;;;;;;10.32;5.05;;;20.10;53.30;;;;;;4973107;28;20200;-87
